LGRP/RHO METAR and TAF weather

Enter ICAO airport designator
Station Type Date Time Source
LGRP METAR 2022/06/30 00:50 UTC NOAA

LGRP 300050Z 00000KT 9999 FEW018 24/18 Q1005 NOSIG


Station Type Date Time Source
LGRP Decoded METAR 2022/06/30 00:50 UTC NOAA

Rhodes Airport , Greece (LGRP) 36-24N 028-05E 11M
Jun 29, 2022 - 08:50 PM EDT / 2022.06.30 0050 UTC
Wind: Calm:0
Visibility: greater than 7 mile(s):0
Sky conditions: mostly clear
Temperature: 75 F (24 C)
Dew Point: 64 F (18 C)
Relative Humidity: 69%
Pressure (altimeter): 29.68 in. Hg (1005 hPa)
ob: LGRP 300050Z 00000KT 9999 FEW018 24/18 Q1005 NOSIG
cycle: 1

Station Type Date Time Source
LGRP TAF 2022/06/29 18:13 UTC NOAA

TAF LGRP 291700Z 2918/3018 26010KT 9999 FEW018
BECMG 2918/2920 VRB05KT
BECMG 3009/3011 25010KT

Example: see airport list